Time;durP1;ratioP1;P1;durP2;ratioP2;P2;SDS_P1;SDS_P2;PMS_P1;PMS_P2;Temp;Humidity;BMP_temperature;BMP_pressure;BME280_temperature;BME280_humidity;BME280_pressure;Samples;Min_cycle;Max_cycle;Signal;HPM_P1;HPM_P2
2020/12/07 00:00:36;;;;;;;43.85;22.73;;;4.20;92.20;;;;;;4919692;28;20126;-80
2020/12/07 00:03:02;;;;;;;41.47;23.27;;;4.10;92.30;;;;;;4942669;28;20170;-80
2020/12/07 00:05:27;;;;;;;46.92;24.42;;;4.20;92.50;;;;;;4950154;28;20109;-80
2020/12/07 00:07:53;;;;;;;44.45;23.95;;;4.10;92.50;;;;;;4944866;28;20040;-80
2020/12/07 00:10:18;;;;;;;50.38;24.17;;;4.10;92.60;;;;;;4956333;28;20482;-79
2020/12/07 00:12:45;;;;;;;47.53;24.75;;;4.10;92.60;;;;;;4919523;28;20026;-80
2020/12/07 00:15:10;;;;;;;46.38;21.73;;;4.10;92.70;;;;;;4950665;28;20088;-80
2020/12/07 00:17:36;;;;;;;40.72;20.08;;;4.10;92.60;;;;;;4935085;28;20031;-81
2020/12/07 00:20:02;;;;;;;37.35;18.45;;;4.10;92.40;;;;;;4945369;28;20023;-80
2020/12/07 00:22:29;;;;;;;37.58;17.30;;;4.20;92.40;;;;;;4946661;28;20050;-80
2020/12/07 00:24:55;;;;;;;58.83;21.90;;;4.20;92.40;;;;;;4963665;28;20116;-80
2020/12/07 00:27:25;;;;;;;35.47;19.42;;;4.20;92.40;;;;;;4964716;28;20035;-80
2020/12/07 00:29:51;;;;;;;36.78;18.23;;;4.20;92.40;;;;;;4951461;28;20290;-80
2020/12/07 00:32:17;;;;;;;36.75;19.92;;;4.20;92.40;;;;;;4940816;28;20705;-80
2020/12/07 00:34:43;;;;;;;37.97;18.13;;;4.20;92.40;;;;;;4936528;28;20019;-80
2020/12/07 00:37:09;;;;;;;40.25;19.00;;;4.10;92.50;;;;;;4915454;28;20069;-81
2020/12/07 00:39:35;;;;;;;31.23;18.30;;;4.20;92.50;;;;;;4930497;28;20030;-80
2020/12/07 00:42:00;;;;;;;30.80;16.40;;;4.20;92.50;;;;;;4946792;28;20058;-79
2020/12/07 00:44:26;;;;;;;32.42;16.33;;;4.20;92.50;;;;;;4930104;28;20030;-80
2020/12/07 00:46:51;;;;;;;33.38;16.70;;;4.20;92.60;;;;;;4951829;28;20034;-80
2020/12/07 00:49:17;;;;;;;33.25;17.75;;;4.30;92.50;;;;;;4945940;28;20042;-80
2020/12/07 00:51:42;;;;;;;34.30;16.85;;;4.30;92.50;;;;;;4914924;28;20189;-80
2020/12/07 00:54:08;;;;;;;29.45;15.35;;;4.20;92.60;;;;;;4928272;28;20427;-80
2020/12/07 00:56:33;;;;;;;13.63;6.43;;;4.10;92.60;;;;;;4934146;28;20486;-81
2020/12/07 00:58:59;;;;;;;27.80;15.63;;;4.20;92.50;;;;;;4948219;28;20109;-80
2020/12/07 01:01:25;;;;;;;19.65;10.02;;;4.20;92.50;;;;;;4931386;28;20039;-80
2020/12/07 01:03:50;;;;;;;28.27;14.70;;;4.20;92.50;;;;;;4941907;28;20042;-80
2020/12/07 01:06:16;;;;;;;25.75;15.30;;;4.20;92.40;;;;;;4960416;28;20166;-80
2020/12/07 01:08:41;;;;;;;26.00;15.27;;;4.30;92.40;;;;;;4934217;28;20049;-80
2020/12/07 01:11:07;;;;;;;13.32;6.68;;;4.30;92.50;;;;;;4918219;28;20034;-80
2020/12/07 01:13:32;;;;;;;22.88;11.48;;;4.30;92.50;;;;;;4938370;28;20038;-80
2020/12/07 01:15:58;;;;;;;21.10;13.25;;;4.30;92.50;;;;;;4918700;28;20034;-80
2020/12/07 01:18:23;;;;;;;24.95;13.68;;;4.20;92.60;;;;;;4962093;28;20031;-80
2020/12/07 01:20:49;;;;;;;22.25;12.75;;;4.30;92.50;;;;;;4944489;28;20042;-81
2020/12/07 01:23:14;;;;;;;22.13;11.82;;;4.30;92.60;;;;;;4934173;28;20035;-80
2020/12/07 01:25:40;;;;;;;20.27;10.13;;;4.20;92.60;;;;;;4929912;28;20125;-81
2020/12/07 01:28:05;;;;;;;13.68;8.73;;;4.30;92.50;;;;;;4948351;28;20038;-80
2020/12/07 01:30:31;;;;;;;7.60;3.63;;;4.30;92.40;;;;;;4948538;28;20117;-80
2020/12/07 01:32:57;;;;;;;18.58;9.75;;;4.30;92.40;;;;;;4947419;28;20399;-81
2020/12/07 01:35:22;;;;;;;20.50;11.07;;;4.30;92.40;;;;;;4936505;28;20085;-81
2020/12/07 01:37:48;;;;;;;14.05;8.77;;;4.30;92.50;;;;;;4937770;28;20050;-80
2020/12/07 01:40:13;;;;;;;17.77;10.50;;;4.30;92.60;;;;;;4951203;28;20488;-80
2020/12/07 01:42:39;;;;;;;19.13;12.07;;;4.20;92.70;;;;;;4914234;28;20023;-80
2020/12/07 01:45:04;;;;;;;19.70;11.32;;;4.20;92.80;;;;;;4942074;28;20042;-80
2020/12/07 01:47:30;;;;;;;20.90;12.52;;;4.30;92.70;;;;;;4960692;28;20038;-80
2020/12/07 01:49:55;;;;;;;19.40;10.82;;;4.30;92.80;;;;;;4943767;28;20033;-81
2020/12/07 01:52:21;;;;;;;14.73;8.88;;;4.30;92.70;;;;;;4916255;28;20026;-81
2020/12/07 01:54:47;;;;;;;20.45;11.48;;;4.30;92.70;;;;;;4943619;28;20058;-80
2020/12/07 01:57:13;;;;;;;22.23;13.88;;;4.30;92.80;;;;;;4946751;28;20063;-80
2020/12/07 01:59:39;;;;;;;26.73;16.15;;;4.30;92.80;;;;;;4948813;28;20031;-81
2020/12/07 02:02:05;;;;;;;27.33;17.55;;;4.20;92.80;;;;;;4944964;28;20114;-81
2020/12/07 02:04:31;;;;;;;21.45;11.45;;;4.30;92.80;;;;;;4942998;28;20061;-80
2020/12/07 02:06:56;;;;;;;26.45;17.58;;;4.30;92.70;;;;;;4961867;28;20039;-81
2020/12/07 02:09:28;;;;;;;25.88;14.98;;;4.30;92.90;;;;;;4929344;28;20045;-81
2020/12/07 02:11:54;;;;;;;34.75;19.80;;;4.30;92.90;;;;;;4979213;28;20077;-81
2020/12/07 02:14:19;;;;;;;26.27;12.73;;;4.30;92.90;;;;;;4948157;28;20494;-80
2020/12/07 02:16:45;;;;;;;30.92;16.80;;;4.30;92.90;;;;;;4914901;28;20037;-80
2020/12/07 02:19:11;;;;;;;23.95;13.10;;;4.30;93.00;;;;;;4934536;28;20042;-80
2020/12/07 02:21:36;;;;;;;20.45;13.38;;;4.30;92.80;;;;;;4931649;28;20141;-80
2020/12/07 02:24:02;;;;;;;26.42;15.05;;;4.30;92.90;;;;;;4944705;28;20038;-80
2020/12/07 02:26:27;;;;;;;25.92;15.15;;;4.30;92.80;;;;;;4931077;28;20434;-80
2020/12/07 02:28:53;;;;;;;25.25;15.10;;;4.30;92.80;;;;;;4941368;28;20634;-80
2020/12/07 02:31:18;;;;;;;19.80;10.43;;;4.20;93.00;;;;;;4947031;28;20026;-80
2020/12/07 02:33:44;;;;;;;22.25;12.73;;;4.20;93.00;;;;;;4948986;28;20026;-80
2020/12/07 02:36:09;;;;;;;32.28;18.83;;;4.30;92.90;;;;;;4916549;28;20430;-80
2020/12/07 02:38:35;;;;;;;34.30;20.30;;;4.30;92.90;;;;;;4931338;28;20030;-80
2020/12/07 02:41:01;;;;;;;28.13;14.82;;;4.20;92.80;;;;;;4941149;28;20052;-80
2020/12/07 02:43:26;;;;;;;23.25;12.00;;;4.30;92.80;;;;;;4952862;28;20058;-80
2020/12/07 02:45:52;;;;;;;25.05;15.93;;;4.30;92.80;;;;;;4963012;28;20543;-80
2020/12/07 02:48:17;;;;;;;25.23;14.52;;;4.30;92.90;;;;;;4946233;28;20098;-81
2020/12/07 02:50:43;;;;;;;25.55;15.45;;;4.30;93.00;;;;;;4949709;28;20037;-81
2020/12/07 02:53:08;;;;;;;16.63;8.13;;;4.30;93.00;;;;;;4962349;28;20034;-80
2020/12/07 02:55:34;;;;;;;17.10;8.95;;;4.30;92.90;;;;;;4942837;28;20398;-80
2020/12/07 02:57:59;;;;;;;13.85;8.52;;;4.20;92.90;;;;;;4934365;28;20491;-80
2020/12/07 03:00:25;;;;;;;24.92;15.40;;;4.20;93.00;;;;;;4944431;28;20057;-80
2020/12/07 03:02:50;;;;;;;14.50;7.28;;;4.30;93.00;;;;;;4942890;28;20039;-80
2020/12/07 03:05:16;;;;;;;17.27;8.38;;;4.30;93.10;;;;;;4947213;28;20530;-81
2020/12/07 03:07:41;;;;;;;24.38;14.05;;;4.30;93.00;;;;;;4932424;28;20027;-81
2020/12/07 03:10:07;;;;;;;27.90;16.85;;;4.20;93.10;;;;;;4928974;28;20035;-81
2020/12/07 03:12:33;;;;;;;26.80;15.82;;;4.20;93.00;;;;;;4927859;28;20019;-81
2020/12/07 03:14:58;;;;;;;22.58;13.63;;;4.20;93.00;;;;;;4947301;28;20117;-81
2020/12/07 03:17:24;;;;;;;27.33;16.05;;;4.30;92.90;;;;;;4929229;28;20030;-81
2020/12/07 03:19:49;;;;;;;34.15;20.42;;;4.20;92.90;;;;;;4929532;28;20039;-81
2020/12/07 03:22:15;;;;;;;13.23;8.77;;;4.30;93.00;;;;;;4915402;28;20493;-81
2020/12/07 03:24:40;;;;;;;24.17;13.75;;;4.30;93.00;;;;;;4922380;28;20030;-81
2020/12/07 03:27:06;;;;;;;29.98;17.40;;;4.20;92.90;;;;;;4950404;28;20068;-81
2020/12/07 03:29:31;;;;;;;21.30;10.30;;;4.20;93.00;;;;;;4938422;28;20046;-81
2020/12/07 03:31:57;;;;;;;27.02;17.27;;;4.30;93.00;;;;;;4944019;28;20490;-80
2020/12/07 03:34:22;;;;;;;25.27;13.98;;;4.30;92.90;;;;;;4960916;28;20500;-81
2020/12/07 03:36:48;;;;;;;26.35;13.85;;;4.30;92.90;;;;;;4949867;28;20561;-78
2020/12/07 03:39:14;;;;;;;18.95;10.93;;;4.30;92.80;;;;;;4947799;28;20556;-79
2020/12/07 03:41:39;;;;;;;14.23;7.80;;;4.30;92.80;;;;;;4934869;28;20031;-79
2020/12/07 03:44:05;;;;;;;28.65;17.13;;;4.30;92.90;;;;;;4962736;28;20037;-79
2020/12/07 03:46:31;;;;;;;23.38;13.40;;;4.20;93.00;;;;;;4934002;28;20034;-78
2020/12/07 03:48:56;;;;;;;25.55;15.45;;;4.30;92.90;;;;;;4965623;28;20039;-79
2020/12/07 03:51:22;;;;;;;21.52;14.10;;;4.30;92.90;;;;;;4950705;28;20034;-81
2020/12/07 03:53:47;;;;;;;24.73;14.48;;;4.30;93.00;;;;;;4948833;28;20089;-81
2020/12/07 03:56:13;;;;;;;25.42;14.93;;;4.20;93.10;;;;;;4950485;28;20027;-81
2020/12/07 03:58:38;;;;;;;24.55;13.52;;;4.20;93.20;;;;;;4934420;28;20034;-81
2020/12/07 04:01:04;;;;;;;19.85;12.68;;;4.20;93.10;;;;;;4946838;28;20038;-80
2020/12/07 04:03:30;;;;;;;27.50;15.65;;;4.20;93.20;;;;;;4947145;28;20041;-81
2020/12/07 04:06:02;;;;;;;23.20;12.43;;;4.20;93.20;;;;;;4959230;28;20105;-81
2020/12/07 04:08:28;;;;;;;29.85;19.27;;;4.20;93.30;;;;;;4935321;28;20046;-81
2020/12/07 04:10:53;;;;;;;22.85;13.80;;;4.20;93.20;;;;;;4962681;28;20391;-81
2020/12/07 04:13:19;;;;;;;25.90;17.27;;;4.20;93.20;;;;;;4949154;28;20034;-80
2020/12/07 04:15:44;;;;;;;31.58;20.17;;;4.20;93.10;;;;;;4920394;28;20026;-81
2020/12/07 04:18:10;;;;;;;26.48;17.42;;;4.20;93.20;;;;;;4936249;28;20041;-81
2020/12/07 04:20:35;;;;;;;23.27;14.13;;;4.20;93.10;;;;;;4919268;28;20158;-81
2020/12/07 04:23:01;;;;;;;29.48;19.40;;;4.20;93.10;;;;;;4942274;28;20031;-81
2020/12/07 04:25:26;;;;;;;12.55;8.48;;;4.20;93.10;;;;;;4937781;28;20034;-81
2020/12/07 04:27:52;;;;;;;25.13;14.98;;;4.20;93.10;;;;;;4949449;28;20371;-81
2020/12/07 04:30:18;;;;;;;17.25;10.38;;;4.20;93.00;;;;;;4946432;28;20038;-81
2020/12/07 04:32:43;;;;;;;23.30;12.23;;;4.20;93.10;;;;;;4936805;28;20038;-81
2020/12/07 04:35:09;;;;;;;25.50;12.38;;;4.20;93.20;;;;;;4922806;28;20031;-80
2020/12/07 04:37:34;;;;;;;15.60;9.95;;;4.20;93.00;;;;;;4916700;28;20410;-81
2020/12/07 04:40:00;;;;;;;15.85;9.80;;;4.20;93.00;;;;;;4931057;28;20023;-81
2020/12/07 04:42:26;;;;;;;18.77;11.48;;;4.20;93.10;;;;;;4939070;28;20113;-81
2020/12/07 04:44:52;;;;;;;19.95;10.98;;;4.20;93.10;;;;;;4946472;28;20105;-80
2020/12/07 04:47:18;;;;;;;18.88;11.10;;;4.20;93.00;;;;;;4947804;28;20510;-80
2020/12/07 04:49:44;;;;;;;16.63;8.98;;;4.10;93.00;;;;;;4930671;28;20035;-80
2020/12/07 04:52:09;;;;;;;30.38;18.55;;;4.10;93.10;;;;;;4938308;28;20033;-80
2020/12/07 04:54:36;;;;;;;22.92;11.00;;;4.10;93.10;;;;;;4249235;28;10000604;-80
2020/12/07 04:57:02;;;;;;;16.25;10.45;;;4.10;93.20;;;;;;4965940;28;20114;-80
2020/12/07 04:59:27;;;;;;;15.70;10.20;;;4.10;93.10;;;;;;4959247;28;21066;-80
2020/12/07 05:01:53;;;;;;;25.83;16.75;;;4.10;93.10;;;;;;4960801;28;20073;-80
2020/12/07 05:04:18;;;;;;;21.67;12.50;;;4.10;93.10;;;;;;4944784;28;20483;-80
2020/12/07 05:06:55;;;;;;;11.70;6.53;;;4.10;93.10;;;;;;4918920;28;20114;-80
2020/12/07 05:09:21;;;;;;;32.53;18.73;;;4.20;93.10;;;;;;4937355;28;20093;-80
2020/12/07 05:11:47;;;;;;;32.80;20.95;;;4.10;93.00;;;;;;4932880;28;20043;-80
2020/12/07 05:14:14;;;;;;;17.50;11.40;;;4.10;93.10;;;;;;4931970;28;20069;-80
2020/12/07 05:16:39;;;;;;;19.52;10.55;;;4.10;93.20;;;;;;4921486;28;20046;-80
2020/12/07 05:19:09;;;;;;;24.45;13.85;;;4.10;93.20;;;;;;4961924;28;20051;-80
2020/12/07 05:21:34;;;;;;;21.48;11.85;;;4.10;93.20;;;;;;4948707;28;20058;-80
2020/12/07 05:24:00;;;;;;;26.48;13.40;;;4.00;93.30;;;;;;4939706;28;20487;-80
2020/12/07 05:26:26;;;;;;;29.42;17.25;;;4.10;93.10;;;;;;4957695;28;20488;-81
2020/12/07 05:28:54;;;;;;;13.55;7.95;;;4.10;93.00;;;;;;4947181;28;20110;-80
2020/12/07 05:31:21;;;;;;;17.77;10.23;;;4.10;93.00;;;;;;4944461;28;20031;-80
2020/12/07 05:33:47;;;;;;;23.05;12.70;;;4.10;93.10;;;;;;4943183;28;20027;-80
2020/12/07 05:36:16;;;;;;;39.97;22.17;;;4.10;93.20;;;;;;4934132;28;20098;-80
2020/12/07 05:38:43;;;;;;;45.53;23.70;;;4.10;93.10;;;;;;4949381;28;20557;-80
2020/12/07 05:41:10;;;;;;;29.00;14.52;;;4.10;93.10;;;;;;4918774;28;20122;-80
2020/12/07 05:43:36;;;;;;;33.00;19.02;;;4.00;93.10;;;;;;4916438;28;20027;-80
2020/12/07 05:46:01;;;;;;;43.72;25.38;;;4.10;93.20;;;;;;4960506;28;20043;-81
2020/12/07 05:48:32;;;;;;;33.53;20.25;;;4.10;93.20;;;;;;4961457;28;20223;-81
2020/12/07 05:51:02;;;;;;;24.27;12.75;;;4.10;93.20;;;;;;4946314;28;20120;-81
2020/12/07 05:53:27;;;;;;;27.02;14.52;;;4.20;93.10;;;;;;4962901;28;20047;-81
2020/12/07 05:55:54;;;;;;;37.70;21.58;;;4.10;93.10;;;;;;4942414;28;20178;-80
2020/12/07 05:58:20;;;;;;;39.10;24.50;;;4.10;93.10;;;;;;4939243;28;20026;-80
2020/12/07 06:00:46;;;;;;;41.60;26.67;;;4.00;93.20;;;;;;4943783;28;20038;-80
2020/12/07 06:03:11;;;;;;;43.28;23.92;;;4.10;93.10;;;;;;4928503;28;20054;-80
2020/12/07 06:05:37;;;;;;;23.65;13.43;;;4.00;93.20;;;;;;4917238;28;20037;-80
2020/12/07 06:08:07;;;;;;;33.35;18.52;;;4.00;93.20;;;;;;4916379;28;20031;-80
2020/12/07 06:10:38;;;;;;;24.38;14.27;;;4.00;93.10;;;;;;4932124;28;20058;-81
2020/12/07 06:13:06;;;;;;;38.35;20.83;;;4.00;93.20;;;;;;4974506;28;20470;-80
2020/12/07 06:15:32;;;;;;;36.25;21.65;;;4.10;93.10;;;;;;4921017;28;20475;-81
2020/12/07 06:17:58;;;;;;;22.30;12.32;;;4.20;93.10;;;;;;4939324;28;20035;-81
2020/12/07 06:20:35;;;;;;;22.50;12.05;;;4.10;93.00;;;;;;4943444;28;20023;-80
2020/12/07 06:23:01;;;;;;;22.80;11.77;;;4.10;93.10;;;;;;4948227;28;20044;-79
2020/12/07 06:25:28;;;;;;;21.13;11.95;;;4.00;93.10;;;;;;4955206;28;20034;-80
2020/12/07 06:27:57;;;;;;;33.85;19.85;;;4.10;93.10;;;;;;4941833;28;20372;-81
2020/12/07 06:30:22;;;;;;;45.58;24.98;;;4.00;93.10;;;;;;4947160;28;20036;-81
2020/12/07 06:32:54;;;;;;;42.95;22.10;;;4.00;93.20;;;;;;4933312;28;20031;-81
2020/12/07 06:35:20;;;;;;;32.53;19.63;;;4.00;93.20;;;;;;4938062;28;20101;-81
2020/12/07 06:37:49;;;;;;;47.72;26.83;;;4.00;93.10;;;;;;4918792;28;20126;-81
2020/12/07 06:40:19;;;;;;;22.70;10.57;;;4.00;93.20;;;;;;4935183;28;20382;-81
2020/12/07 06:42:45;;;;;;;43.22;23.65;;;4.00;93.30;;;;;;4917403;28;20495;-80
2020/12/07 06:45:29;;;;;;;44.60;26.88;;;4.00;93.30;;;;;;4918788;28;20038;-81
2020/12/07 06:47:55;;;;;;;43.40;23.80;;;4.00;93.30;;;;;;4918973;28;20046;-81
2020/12/07 06:50:25;;;;;;;30.15;11.38;;;4.00;93.30;;;;;;4931747;28;20454;-80
2020/12/07 06:52:50;;;;;;;31.95;17.00;;;4.00;93.40;;;;;;4931921;28;20094;-80
2020/12/07 06:55:17;;;;;;;46.53;26.73;;;4.00;93.40;;;;;;4944561;28;20026;-81
2020/12/07 06:57:44;;;;;;;26.92;14.85;;;4.00;93.30;;;;;;4936045;28;20034;-81
2020/12/07 07:00:12;;;;;;;40.05;23.05;;;4.00;93.30;;;;;;4940077;28;20041;-80
2020/12/07 07:02:51;;;;;;;28.20;14.00;;;4.00;93.30;;;;;;4932217;28;20031;-81
2020/12/07 07:05:21;;;;;;;24.08;13.50;;;4.00;93.40;;;;;;4923715;28;20089;-81
2020/12/07 07:07:47;;;;;;;39.08;21.55;;;3.90;93.30;;;;;;4934643;28;20039;-81
2020/12/07 07:10:13;;;;;;;36.70;20.02;;;4.00;93.30;;;;;;4918958;28;20077;-80
2020/12/07 07:12:39;;;;;;;32.53;17.35;;;4.00;93.30;;;;;;4930727;28;20024;-81
2020/12/07 07:15:08;;;;;;;32.95;17.88;;;4.00;93.30;;;;;;4931617;28;20035;-80
2020/12/07 07:17:37;;;;;;;38.72;20.67;;;4.00;93.20;;;;;;4942527;28;20086;-81
2020/12/07 07:20:04;;;;;;;44.70;23.30;;;4.00;93.30;;;;;;4946706;28;20041;-80
2020/12/07 07:22:30;;;;;;;39.20;20.13;;;4.00;93.30;;;;;;4945554;28;20031;-81
2020/12/07 07:30:11;;;;;;;26.73;11.98;;;3.90;93.30;;;;;;4968935;28;20030;-81
2020/12/07 07:32:39;;;;;;;32.05;16.08;;;3.90;93.40;;;;;;4918294;28;20026;-81
2020/12/07 07:35:05;;;;;;;26.42;12.50;;;3.90;93.30;;;;;;4934167;28;20031;-80
2020/12/07 07:37:31;;;;;;;26.35;11.18;;;3.90;93.40;;;;;;4931597;28;20438;-80
2020/12/07 07:40:11;;;;;;;34.83;15.95;;;3.90;93.40;;;;;;4946806;28;20108;-80
2020/12/07 07:42:42;;;;;;;29.95;17.80;;;3.90;93.40;;;;;;4925836;28;20040;-80
2020/12/07 07:45:07;;;;;;;32.15;17.23;;;3.90;93.40;;;;;;4951620;28;20022;-81
2020/12/07 07:47:39;;;;;;;40.17;20.83;;;3.90;93.40;;;;;;4950143;28;20031;-82
2020/12/07 07:50:21;;;;;;;37.83;21.30;;;3.90;93.40;;;;;;4967533;28;20433;-81
2020/12/07 08:17:49;;;;;;;25.05;11.00;;;3.90;93.30;;;;;;4947713;28;20065;-82
2020/12/07 08:20:15;;;;;;;29.00;15.15;;;3.90;93.20;;;;;;4945138;28;20034;-81
2020/12/07 08:22:41;;;;;;;30.40;17.73;;;3.90;93.20;;;;;;4919323;28;20045;-81
2020/12/07 08:25:06;;;;;;;30.38;16.73;;;3.80;93.30;;;;;;4957880;28;20124;-81
2020/12/07 08:27:36;;;;;;;38.05;19.70;;;3.80;93.30;;;;;;4945702;28;20119;-81
2020/12/07 08:30:05;;;;;;;23.17;11.85;;;3.80;93.30;;;;;;4945403;28;20054;-81
2020/12/07 08:32:32;;;;;;;25.83;14.23;;;3.80;93.20;;;;;;4949852;28;20479;-80
2020/12/07 08:34:57;;;;;;;24.63;12.00;;;3.80;93.30;;;;;;4959299;28;20030;-80
2020/12/07 08:37:27;;;;;;;20.48;9.40;;;3.80;93.30;;;;;;4941905;28;20094;-81
2020/12/07 08:39:52;;;;;;;22.75;12.07;;;3.80;93.30;;;;;;4934272;28;20138;-81
2020/12/07 08:42:19;;;;;;;17.58;9.38;;;3.80;93.30;;;;;;4948393;28;20139;-81
2020/12/07 08:44:44;;;;;;;17.77;9.82;;;3.80;93.30;;;;;;4918295;28;20030;-81
2020/12/07 08:47:10;;;;;;;29.10;15.02;;;3.80;93.30;;;;;;4915572;28;20037;-82
2020/12/07 08:49:36;;;;;;;30.02;16.13;;;3.80;93.20;;;;;;4936491;28;20372;-81
2020/12/07 08:52:01;;;;;;;28.80;15.27;;;3.90;93.20;;;;;;4947308;28;20702;-81
2020/12/07 08:54:27;;;;;;;26.60;12.93;;;3.90;93.20;;;;;;4932663;28;20491;-81
2020/12/07 08:56:52;;;;;;;9.82;5.95;;;3.80;93.20;;;;;;4950622;28;20472;-81
2020/12/07 08:59:18;;;;;;;27.33;15.38;;;3.90;93.30;;;;;;4945166;28;20077;-81
2020/12/07 09:01:43;;;;;;;27.35;14.10;;;3.90;93.20;;;;;;4918126;28;20089;-81
2020/12/07 09:04:11;;;;;;;15.40;8.38;;;3.90;93.30;;;;;;4937920;28;20038;-81
2020/12/07 09:06:40;;;;;;;29.00;13.95;;;3.90;93.30;;;;;;4939538;28;20037;-82
2020/12/07 09:09:09;;;;;;;27.30;14.15;;;3.90;93.30;;;;;;4949510;28;20483;-82
2020/12/07 09:11:34;;;;;;;20.33;12.13;;;3.90;93.30;;;;;;4946450;28;20054;-81
2020/12/07 09:14:01;;;;;;;13.00;9.23;;;3.90;93.30;;;;;;4930756;28;20042;-82
2020/12/07 09:16:27;;;;;;;30.33;15.52;;;3.90;93.30;;;;;;4938577;28;20065;-82
2020/12/07 09:18:53;;;;;;;34.28;15.40;;;3.90;93.20;;;;;;4944979;28;20034;-82
2020/12/07 09:21:18;;;;;;;30.35;17.13;;;3.90;93.30;;;;;;4933346;28;20513;-81
2020/12/07 09:23:44;;;;;;;26.60;13.45;;;4.00;93.20;;;;;;4917694;28;20026;-81
2020/12/07 09:26:10;;;;;;;19.60;8.05;;;4.00;93.20;;;;;;4932179;28;20505;-80
2020/12/07 09:28:36;;;;;;;22.13;9.75;;;3.90;93.20;;;;;;4918184;28;20140;-81
2020/12/07 09:31:01;;;;;;;32.42;17.95;;;3.90;93.30;;;;;;4939154;28;20039;-81
2020/12/07 09:33:27;;;;;;;27.38;12.35;;;3.90;93.30;;;;;;4946458;28;20034;-81
2020/12/07 09:35:53;;;;;;;26.15;13.85;;;4.00;93.30;;;;;;4947164;28;20210;-81
2020/12/07 09:38:18;;;;;;;25.30;14.57;;;4.00;93.30;;;;;;4948563;28;20073;-81
2020/12/07 09:40:44;;;;;;;19.65;10.50;;;4.00;93.30;;;;;;4917816;28;20026;-81
2020/12/07 09:43:09;;;;;;;22.13;10.40;;;4.00;93.20;;;;;;4919429;28;20511;-81
2020/12/07 09:45:35;;;;;;;26.80;11.90;;;3.90;93.10;;;;;;4919033;28;20031;-81
2020/12/07 09:48:00;;;;;;;16.60;8.88;;;3.90;93.20;;;;;;4947328;28;20035;-80
2020/12/07 09:50:26;;;;;;;23.77;10.95;;;3.90;93.20;;;;;;4957818;28;20027;-80
2020/12/07 09:52:51;;;;;;;22.88;11.00;;;3.90;93.20;;;;;;4965736;28;20038;-80
2020/12/07 09:55:17;;;;;;;24.52;14.23;;;3.90;93.20;;;;;;4945493;28;20041;-80
2020/12/07 09:57:42;;;;;;;25.25;14.02;;;3.90;93.30;;;;;;4921316;28;20103;-81
2020/12/07 10:00:08;;;;;;;18.88;10.13;;;3.90;93.20;;;;;;4938108;28;20434;-80
2020/12/07 10:02:34;;;;;;;24.40;13.52;;;4.00;93.30;;;;;;4937295;28;20110;-80
2020/12/07 10:05:00;;;;;;;13.88;7.05;;;4.00;93.20;;;;;;4948126;28;20093;-80
2020/12/07 10:07:25;;;;;;;26.50;13.90;;;3.90;93.20;;;;;;4930960;28;20030;-81
2020/12/07 10:09:51;;;;;;;13.32;7.22;;;3.90;93.20;;;;;;4934154;28;20550;-81
2020/12/07 10:12:17;;;;;;;14.48;7.38;;;3.90;93.20;;;;;;4942849;28;20031;-81
2020/12/07 10:14:42;;;;;;;17.60;8.10;;;3.90;93.20;;;;;;4916122;28;20387;-80
2020/12/07 10:17:08;;;;;;;32.88;16.75;;;3.80;93.20;;;;;;4932415;28;20089;-81
2020/12/07 10:19:33;;;;;;;27.40;14.43;;;3.80;93.20;;;;;;4961882;28;20035;-81
2020/12/07 10:22:02;;;;;;;35.28;17.40;;;3.80;93.20;;;;;;4960456;28;20034;-81
2020/12/07 10:24:28;;;;;;;35.05;19.30;;;3.80;93.20;;;;;;4947005;28;20061;-80
2020/12/07 10:26:53;;;;;;;25.88;10.48;;;3.80;93.20;;;;;;4942933;28;20027;-81
2020/12/07 10:29:19;;;;;;;16.55;9.00;;;3.80;93.20;;;;;;4943472;28;20442;-81
2020/12/07 10:31:45;;;;;;;19.65;9.60;;;3.80;93.20;;;;;;4946398;28;20085;-80
2020/12/07 10:34:10;;;;;;;38.95;20.30;;;3.80;93.20;;;;;;4930105;28;20161;-81
2020/12/07 10:36:38;;;;;;;31.48;12.95;;;3.80;93.20;;;;;;4916873;28;20046;-80
2020/12/07 10:39:06;;;;;;;33.60;20.33;;;3.80;93.20;;;;;;4959679;28;20447;-81
2020/12/07 10:41:31;;;;;;;19.58;10.25;;;3.70;93.20;;;;;;4963794;28;20083;-81
2020/12/07 10:43:57;;;;;;;26.02;12.68;;;3.70;93.10;;;;;;4942968;28;20114;-81
2020/12/07 10:46:22;;;;;;;17.55;9.82;;;3.80;93.10;;;;;;4960363;28;20402;-81
2020/12/07 10:48:48;;;;;;;20.67;11.20;;;3.80;93.10;;;;;;4916375;28;20090;-81
2020/12/07 10:51:14;;;;;;;35.45;17.30;;;3.80;93.20;;;;;;4931852;28;20137;-81
2020/12/07 10:53:39;;;;;;;29.90;15.45;;;3.80;93.10;;;;;;4961473;28;20050;-80
2020/12/07 10:56:08;;;;;;;20.73;11.45;;;3.80;93.10;;;;;;4945155;28;20054;-81
2020/12/07 10:58:34;;;;;;;22.88;12.82;;;3.80;93.20;;;;;;4931084;28;20031;-81
2020/12/07 11:01:00;;;;;;;26.80;12.70;;;3.80;93.20;;;;;;4945598;28;20435;-80
2020/12/07 11:03:25;;;;;;;25.23;12.82;;;3.80;93.20;;;;;;4960802;28;20085;-81
2020/12/07 11:05:51;;;;;;;22.60;9.65;;;3.80;93.20;;;;;;4945325;28;20271;-81
2020/12/07 11:08:27;;;;;;;21.83;12.40;;;3.80;93.20;;;;;;4942600;28;20035;-81
2020/12/07 11:10:54;;;;;;;;;;;3.90;93.20;;;;;;4951223;28;20541;-81
2020/12/07 11:13:31;;;;;;;26.27;12.40;;;3.90;93.20;;;;;;4941653;28;19914;-81
2020/12/07 11:16:04;;;;;;;17.35;9.35;;;3.90;93.20;;;;;;4939067;28;20093;-81
2020/12/07 11:18:31;;;;;;;29.75;13.25;;;3.90;93.20;;;;;;4931452;28;20382;-81
2020/12/07 11:20:57;;;;;;;22.02;12.57;;;3.90;93.10;;;;;;4952341;28;20035;-81
2020/12/07 11:23:26;;;;;;;31.88;17.73;;;3.90;93.20;;;;;;4945143;28;20423;-81
2020/12/07 11:25:51;;;;;;;19.67;9.80;;;3.90;93.20;;;;;;4963893;28;20038;-81
2020/12/07 11:28:17;;;;;;;37.20;19.23;;;3.90;93.20;;;;;;4956619;28;20549;-82
2020/12/07 11:30:42;;;;;;;20.52;10.10;;;3.90;93.20;;;;;;4934958;28;20119;-82
2020/12/07 11:33:08;;;;;;;21.42;10.40;;;3.90;93.20;;;;;;4930787;28;20136;-82
2020/12/07 11:35:34;;;;;;;31.67;16.27;;;3.90;93.10;;;;;;4943760;28;20140;-81
2020/12/07 11:38:06;;;;;;;20.30;9.48;;;4.00;93.50;;;;;;4957889;28;20046;-81
2020/12/07 11:40:50;;;;;;;29.25;13.60;;;3.90;93.10;;;;;;4960360;28;20023;-81
2020/12/07 11:45:42;;;;;;;23.33;10.77;;;4.00;93.10;;;;;;4953172;28;20038;-81
2020/12/07 11:48:08;;;;;;;24.35;11.90;;;4.00;93.10;;;;;;4939221;28;20067;-81
2020/12/07 11:50:34;;;;;;;27.33;15.32;;;4.00;93.10;;;;;;4943891;28;20038;-81
2020/12/07 11:53:00;;;;;;;25.80;14.70;;;4.00;93.10;;;;;;4959909;28;20038;-81
2020/12/07 11:55:25;;;;;;;22.08;10.82;;;4.10;93.20;;;;;;4932374;28;20023;-81
2020/12/07 11:57:51;;;;;;;16.05;9.13;;;4.10;93.10;;;;;;4951578;28;20416;-81
2020/12/07 12:00:16;;;;;;;24.98;14.02;;;4.10;93.10;;;;;;4949237;28;20525;-81
2020/12/07 12:02:42;;;;;;;23.52;13.18;;;4.10;93.20;;;;;;4937379;28;20534;-81
2020/12/07 12:05:07;;;;;;;22.75;10.80;;;4.10;93.10;;;;;;4966208;28;20023;-81
2020/12/07 12:07:33;;;;;;;20.85;10.98;;;4.10;93.00;;;;;;4933104;28;20019;-81
2020/12/07 12:09:59;;;;;;;16.17;8.63;;;4.10;93.10;;;;;;4947285;28;20036;-81
2020/12/07 12:12:24;;;;;;;24.02;11.38;;;4.10;93.10;;;;;;4929211;28;20031;-81
2020/12/07 12:14:50;;;;;;;17.73;8.02;;;4.10;93.10;;;;;;4966524;28;20066;-81
2020/12/07 12:17:16;;;;;;;10.95;5.15;;;4.10;93.10;;;;;;4963814;28;20466;-81
2020/12/07 12:19:41;;;;;;;12.55;6.15;;;4.10;93.20;;;;;;4922347;28;20070;-81
2020/12/07 12:22:07;;;;;;;11.15;5.60;;;4.10;93.20;;;;;;4947035;28;20038;-81
2020/12/07 12:24:32;;;;;;;20.00;9.52;;;4.10;93.20;;;;;;4943817;28;20019;-81
2020/12/07 12:26:58;;;;;;;11.88;5.18;;;4.10;93.20;;;;;;4948253;28;20433;-81
2020/12/07 12:29:23;;;;;;;17.80;8.88;;;4.10;93.20;;;;;;4935114;28;20058;-81
2020/12/07 12:31:49;;;;;;;11.57;6.28;;;4.10;93.30;;;;;;4963918;28;20125;-81
2020/12/07 12:34:14;;;;;;;17.92;7.32;;;4.20;93.30;;;;;;4916146;28;20467;-81
2020/12/07 12:36:42;;;;;;;19.35;9.85;;;4.20;93.30;;;;;;4941745;28;20034;-81
2020/12/07 12:39:08;;;;;;;10.80;6.45;;;4.20;93.30;;;;;;4921423;28;20056;-81
2020/12/07 12:41:33;;;;;;;8.77;3.88;;;4.20;93.40;;;;;;4922006;28;20109;-81
2020/12/07 12:43:59;;;;;;;18.02;9.88;;;4.30;93.30;;;;;;4947973;28;20398;-82
2020/12/07 12:46:24;;;;;;;9.85;4.88;;;4.30;93.40;;;;;;4923257;28;20039;-82
2020/12/07 12:48:50;;;;;;;11.30;5.57;;;4.30;93.40;;;;;;4947112;28;20046;-81
2020/12/07 12:51:15;;;;;;;10.85;4.80;;;4.30;93.30;;;;;;4946988;28;20037;-81
2020/12/07 12:53:41;;;;;;;15.45;8.40;;;4.30;93.30;;;;;;4906165;28;20051;-81
2020/12/07 12:56:07;;;;;;;19.27;9.73;;;4.30;93.30;;;;;;4969816;28;20062;-81
2020/12/07 12:58:33;;;;;;;21.40;8.02;;;4.30;93.30;;;;;;4935009;28;20059;-81
2020/12/07 13:00:59;;;;;;;13.65;5.28;;;4.30;93.40;;;;;;4951732;28;20049;-82
2020/12/07 13:03:25;;;;;;;22.15;11.07;;;4.30;93.50;;;;;;4947629;28;20247;-82
2020/12/07 13:05:52;;;;;;;11.32;5.60;;;4.30;93.30;;;;;;4965840;28;20109;-82